createdAt,value
2023-05-20T00:00:19.421Z,38.85
2023-05-20T00:02:46.139Z,38.67
2023-05-20T00:05:12.689Z,41.88
2023-05-20T00:07:39.349Z,60.07
2023-05-20T00:10:06.653Z,44.25
2023-05-20T00:12:35.017Z,41.67
2023-05-20T00:15:02.166Z,59.58
2023-05-20T00:17:28.830Z,56.45
2023-05-20T00:19:55.566Z,55.07
2023-05-20T00:22:22.368Z,41.35
2023-05-20T00:24:49.068Z,50.15
2023-05-20T00:27:15.684Z,35.20
2023-05-20T00:29:42.220Z,39.45
2023-05-20T00:32:08.802Z,53.20
2023-05-20T00:34:35.744Z,30.23
2023-05-20T00:37:02.262Z,58.97
2023-05-20T00:39:30.371Z,59.95
2023-05-20T00:42:00.545Z,56.78
2023-05-20T00:44:27.122Z,66.07
2023-05-20T00:46:54.221Z,43.28
2023-05-20T00:49:22.136Z,59.30
2023-05-20T00:51:48.701Z,35.10
2023-05-20T00:54:15.431Z,83.43
2023-05-20T00:56:42.092Z,66.60
2023-05-20T00:59:09.233Z,44.13
2023-05-20T01:01:35.880Z,49.90
2023-05-20T01:04:02.931Z,33.45
2023-05-20T01:06:29.537Z,61.95
2023-05-20T01:08:56.438Z,52.10
2023-05-20T01:11:35.645Z,51.75
2023-05-20T01:14:06.590Z,56.47
2023-05-20T01:16:35.542Z,48.42
2023-05-20T01:19:04.122Z,52.30
2023-05-20T01:21:32.480Z,49.63
2023-05-20T01:23:59.071Z,52.63
2023-05-20T01:26:27.224Z,34.78
2023-05-20T01:28:54.262Z,42.33
2023-05-20T01:31:31.578Z,59.08
2023-05-20T01:33:59.465Z,38.73
2023-05-20T01:36:28.268Z,58.28
2023-05-20T01:38:55.522Z,42.28
2023-05-20T01:41:24.629Z,52.95
2023-05-20T01:43:51.174Z,52.13
2023-05-20T01:46:17.860Z,46.60
2023-05-20T01:48:44.497Z,47.90
2023-05-20T01:51:11.095Z,50.83
2023-05-20T01:53:37.844Z,44.28
2023-05-20T01:56:05.734Z,50.22
2023-05-20T01:58:32.344Z,54.80
2023-05-20T02:00:58.910Z,47.10
2023-05-20T02:03:25.734Z,58.72
2023-05-20T02:05:52.509Z,43.38
2023-05-20T02:08:19.052Z,42.50
2023-05-20T02:10:48.395Z,53.87
2023-05-20T02:13:14.931Z,49.00
2023-05-20T02:15:42.327Z,54.25
2023-05-20T02:18:08.978Z,55.33
2023-05-20T02:20:36.608Z,41.53
2023-05-20T02:23:05.765Z,45.10
2023-05-20T02:25:32.996Z,61.83
2023-05-20T02:27:59.821Z,43.67
2023-05-20T02:30:27.343Z,81.78
2023-05-20T02:32:53.885Z,39.20
2023-05-20T02:35:20.433Z,55.53
2023-05-20T02:37:48.322Z,40.58
2023-05-20T02:40:14.979Z,46.65
2023-05-20T02:42:41.521Z,40.75
2023-05-20T02:45:08.510Z,63.40
2023-05-20T02:47:35.058Z,44.83
2023-05-20T02:50:01.645Z,54.67
2023-05-20T02:52:28.486Z,48.22
2023-05-20T02:54:55.365Z,61.92
2023-05-20T02:57:22.062Z,44.20
2023-05-20T02:59:48.642Z,48.20
2023-05-20T03:02:15.572Z,48.08
2023-05-20T03:04:42.742Z,48.92
2023-05-20T03:07:09.350Z,44.00
2023-05-20T03:09:36.714Z,69.88
2023-05-20T03:12:03.783Z,55.10
2023-05-20T03:14:30.432Z,44.70
2023-05-20T03:16:57.234Z,62.70
2023-05-20T03:19:23.926Z,33.38
2023-05-20T03:21:50.745Z,40.58
2023-05-20T03:24:18.149Z,45.60
2023-05-20T03:26:46.497Z,48.30
2023-05-20T03:29:13.204Z,43.45
2023-05-20T03:31:39.780Z,46.20
2023-05-20T03:34:06.392Z,49.70
2023-05-20T03:36:32.891Z,43.87
2023-05-20T03:38:59.399Z,39.97
2023-05-20T03:41:26.201Z,56.22
2023-05-20T03:43:52.725Z,45.75
2023-05-20T03:46:19.404Z,51.25
2023-05-20T03:48:46.096Z,38.73
2023-05-20T03:51:12.634Z,77.07
2023-05-20T03:53:39.224Z,40.38
2023-05-20T03:56:06.069Z,41.05
2023-05-20T03:58:32.692Z,46.42
2023-05-20T04:00:59.235Z,52.63
2023-05-20T04:03:26.107Z,45.40
2023-05-20T04:05:52.731Z,43.28
2023-05-20T04:08:19.238Z,48.13
2023-05-20T04:10:46.225Z,39.25
2023-05-20T04:13:13.042Z,46.87
2023-05-20T04:15:39.653Z,44.42
2023-05-20T04:18:06.444Z,47.08
2023-05-20T04:20:33.206Z,105.97
2023-05-20T04:22:59.924Z,111.70
2023-05-20T04:25:27.353Z,137.77
2023-05-20T04:27:57.749Z,119.85
2023-05-20T04:30:24.578Z,87.65
2023-05-20T04:32:51.358Z,70.75
2023-05-20T04:35:18.394Z,112.43
2023-05-20T04:37:48.378Z,55.43
2023-05-20T04:40:15.323Z,47.20
2023-05-20T04:42:43.784Z,56.38
2023-05-20T04:45:10.921Z,55.13
2023-05-20T04:47:39.303Z,66.57
2023-05-20T04:50:10.776Z,58.53
2023-05-20T04:52:39.059Z,43.42
2023-05-20T04:55:10.268Z,50.15
2023-05-20T04:57:39.658Z,85.35
2023-05-20T05:00:07.884Z,54.95
2023-05-20T05:02:36.046Z,55.50
2023-05-20T05:05:02.892Z,70.05
2023-05-20T05:07:29.509Z,44.30
2023-05-20T05:09:56.379Z,60.58
2023-05-20T05:12:23.089Z,64.28
2023-05-20T05:14:49.896Z,50.20
2023-05-20T05:17:16.543Z,53.90
2023-05-20T05:19:43.063Z,67.32
2023-05-20T05:22:09.574Z,87.18
2023-05-20T05:24:36.139Z,50.08
2023-05-20T05:27:02.667Z,56.50
2023-05-20T05:29:29.384Z,64.10
2023-05-20T05:31:56.390Z,86.80
2023-05-20T05:34:22.986Z,77.32
2023-05-20T05:36:49.501Z,54.22
2023-05-20T05:39:16.245Z,49.20
2023-05-20T05:41:43.055Z,52.53
2023-05-20T05:44:09.692Z,62.10
2023-05-20T05:46:36.308Z,45.17
2023-05-20T05:49:02.848Z,52.63
2023-05-20T05:51:30.827Z,58.73
2023-05-20T05:53:57.401Z,59.05
2023-05-20T05:56:24.244Z,70.05
2023-05-20T05:58:51.035Z,40.20
2023-05-20T06:01:17.848Z,70.07
2023-05-20T06:03:45.101Z,50.87
2023-05-20T06:06:11.760Z,46.22
2023-05-20T06:08:38.430Z,51.28
2023-05-20T06:11:05.032Z,46.22
2023-05-20T06:13:31.552Z,52.03
2023-05-20T06:15:58.055Z,108.07
2023-05-20T06:18:24.618Z,96.57
2023-05-20T06:20:58.460Z,61.42
2023-05-20T06:23:25.138Z,74.55
2023-05-20T06:25:52.270Z,78.32
2023-05-20T06:28:18.826Z,48.80
2023-05-20T06:30:45.490Z,99.28
2023-05-20T06:33:12.107Z,74.13
2023-05-20T06:35:38.745Z,48.83
2023-05-20T06:38:05.996Z,38.47
2023-05-20T06:40:32.623Z,117.47
2023-05-20T06:42:59.291Z,52.17
2023-05-20T06:45:25.998Z,44.08
2023-05-20T06:47:54.236Z,27.85
2023-05-20T06:50:21.022Z,79.75
2023-05-20T06:52:47.643Z,41.37
2023-05-20T06:55:14.269Z,40.05
2023-05-20T06:57:41.088Z,65.43
2023-05-20T07:00:09.428Z,29.92
2023-05-20T07:02:36.135Z,125.43
2023-05-20T07:05:02.777Z,57.47
2023-05-20T07:07:29.488Z,51.30
2023-05-20T07:09:57.548Z,34.72
2023-05-20T07:12:24.431Z,55.45
2023-05-20T07:14:51.157Z,66.03
2023-05-20T07:17:17.883Z,87.10
2023-05-20T07:19:44.468Z,82.95
2023-05-20T07:22:11.443Z,40.20
2023-05-20T07:24:38.268Z,48.67
2023-05-20T07:27:05.192Z,49.58
2023-05-20T07:29:31.721Z,45.43
2023-05-20T07:31:58.298Z,30.48
2023-05-20T07:34:25.056Z,136.35
2023-05-20T07:36:51.726Z,216.15
2023-05-20T07:39:18.345Z,87.82
2023-05-20T07:41:45.105Z,58.20
2023-05-20T07:44:12.996Z,60.28
2023-05-20T07:46:40.470Z,60.00
2023-05-20T07:49:07.937Z,51.10
2023-05-20T07:51:34.443Z,25.05
2023-05-20T07:54:01.868Z,38.47
2023-05-20T07:56:28.852Z,62.13
2023-05-20T07:58:59.940Z,38.63
2023-05-20T08:01:27.291Z,43.15
2023-05-20T08:03:54.501Z,54.63
2023-05-20T08:06:21.860Z,39.03
2023-05-20T08:08:48.417Z,118.22
2023-05-20T08:11:15.230Z,24.92
2023-05-20T08:13:44.653Z,83.38
2023-05-20T08:16:11.638Z,40.60
2023-05-20T08:18:38.426Z,83.83
2023-05-20T08:21:09.914Z,195.57
2023-05-20T08:23:40.490Z,48.22
2023-05-20T08:26:08.004Z,72.70
2023-05-20T08:28:34.867Z,40.58
2023-05-20T08:31:02.474Z,54.30
2023-05-20T08:33:29.104Z,102.72
2023-05-20T08:35:56.045Z,72.38
2023-05-20T08:38:23.105Z,82.32
2023-05-20T08:40:54.916Z,113.57
2023-05-20T08:43:22.265Z,127.30
2023-05-20T08:45:49.415Z,141.73
2023-05-20T08:48:20.213Z,185.55
2023-05-20T08:50:51.506Z,218.10
2023-05-20T08:53:22.650Z,174.15
2023-05-20T08:55:55.529Z,193.97
2023-05-20T08:58:23.487Z,203.55
2023-05-20T09:00:51.486Z,218.10
2023-05-20T09:03:18.897Z,207.85
2023-05-20T09:05:45.572Z,225.68
2023-05-20T09:08:12.919Z,216.33
2023-05-20T09:10:43.145Z,214.10
2023-05-20T09:13:11.451Z,185.60
2023-05-20T09:15:39.178Z,162.15
2023-05-20T09:18:07.589Z,147.25
2023-05-20T09:20:37.433Z,183.00
2023-05-20T09:23:06.509Z,110.78
2023-05-20T09:25:33.851Z,103.10
2023-05-20T09:28:00.602Z,71.65
2023-05-20T09:30:27.204Z,210.85
2023-05-20T09:32:59.288Z,127.17
2023-05-20T09:35:27.921Z,55.08
2023-05-20T09:37:58.791Z,74.70
2023-05-20T09:40:31.736Z,148.18
2023-05-20T09:43:07.905Z,80.30
2023-05-20T09:45:35.561Z,40.87
2023-05-20T09:48:03.283Z,22.23
2023-05-20T09:50:32.081Z,79.68
2023-05-20T09:53:03.339Z,15.40
2023-05-20T09:55:30.931Z,45.42
2023-05-20T09:57:59.303Z,93.53
2023-05-20T10:00:26.030Z,17.67
2023-05-20T10:02:53.373Z,156.80
2023-05-20T10:05:29.591Z,20.20
2023-05-20T10:08:14.545Z,73.43
2023-05-20T10:10:56.459Z,74.90
2023-05-20T10:13:41.657Z,11.15
2023-05-20T10:17:10.417Z,8.57
2023-05-20T10:19:37.259Z,82.85
2023-05-20T10:22:08.883Z,7.88
2023-05-20T10:24:38.709Z,47.43
2023-05-20T10:27:15.191Z,8.32
2023-05-20T10:29:52.758Z,8.73
2023-05-20T10:32:25.513Z,21.50
2023-05-20T10:34:52.342Z,16.40
2023-05-20T10:37:28.043Z,48.37
2023-05-20T10:40:12.350Z,11.68
2023-05-20T10:42:39.794Z,10.40
2023-05-20T10:45:10.203Z,25.25
2023-05-20T10:47:40.540Z,11.15
2023-05-20T10:50:07.863Z,16.47
2023-05-20T10:52:37.124Z,21.80
2023-05-20T10:55:05.011Z,10.50
2023-05-20T10:57:34.598Z,19.73
2023-05-20T11:00:01.319Z,8.23
2023-05-20T11:02:28.991Z,22.53
2023-05-20T11:04:59.272Z,9.25
2023-05-20T11:07:32.961Z,51.65
2023-05-20T11:10:00.118Z,10.90
2023-05-20T11:12:30.409Z,8.63
2023-05-20T11:14:57.034Z,10.60
2023-05-20T11:17:23.603Z,8.32
2023-05-20T11:19:50.639Z,7.72
2023-05-20T11:22:17.367Z,8.45
2023-05-20T11:24:43.968Z,26.15
2023-05-20T11:27:10.679Z,9.27
2023-05-20T11:29:41.536Z,9.60
2023-05-20T11:32:08.588Z,52.20
2023-05-20T11:34:36.559Z,37.80
2023-05-20T11:37:07.992Z,35.75
2023-05-20T11:39:34.631Z,37.07
2023-05-20T11:42:01.332Z,29.63
2023-05-20T11:44:27.987Z,10.43
2023-05-20T11:47:03.301Z,19.85
2023-05-20T11:49:32.044Z,56.10
2023-05-20T11:51:58.906Z,7.10
2023-05-20T11:54:26.558Z,26.85
2023-05-20T11:56:56.851Z,24.83
2023-05-20T11:59:29.438Z,13.82
2023-05-20T12:01:56.168Z,8.75
2023-05-20T12:04:23.170Z,6.90
2023-05-20T12:06:50.178Z,8.82
2023-05-20T12:09:17.012Z,6.78
2023-05-20T12:11:45.161Z,20.85
2023-05-20T12:14:11.715Z,90.95
2023-05-20T12:16:38.311Z,141.10
2023-05-20T12:19:05.946Z,7.53
2023-05-20T12:21:32.615Z,25.38
2023-05-20T12:23:59.826Z,11.25
2023-05-20T12:26:29.679Z,16.35
2023-05-20T12:28:56.858Z,14.47
2023-05-20T12:31:25.560Z,42.33
2023-05-20T12:33:52.481Z,7.55
2023-05-20T12:36:22.280Z,13.10
2023-05-20T12:38:49.044Z,23.75
2023-05-20T12:41:15.737Z,70.50
2023-05-20T12:43:45.383Z,104.70
2023-05-20T12:46:12.322Z,64.38
2023-05-20T12:48:41.694Z,23.27
2023-05-20T12:51:09.200Z,42.70
2023-05-20T12:53:36.192Z,15.50
2023-05-20T12:56:06.178Z,63.40
2023-05-20T12:58:33.299Z,7.78
2023-05-20T13:01:00.341Z,20.38
2023-05-20T13:03:27.138Z,26.48
2023-05-20T13:05:54.800Z,57.30
2023-05-20T13:08:21.730Z,25.80
2023-05-20T13:10:48.482Z,14.25
2023-05-20T13:13:21.238Z,135.88
2023-05-20T13:15:51.641Z,39.15
2023-05-20T13:18:19.355Z,51.63
2023-05-20T13:20:46.413Z,24.33
2023-05-20T13:23:13.003Z,17.63
2023-05-20T13:25:39.545Z,39.53
2023-05-20T13:28:06.541Z,28.17
2023-05-20T13:30:33.512Z,25.73
2023-05-20T13:33:00.525Z,75.97
2023-05-20T13:35:27.206Z,21.63
2023-05-20T13:37:54.072Z,152.80
2023-05-20T13:40:20.868Z,17.08
2023-05-20T13:42:47.402Z,110.97
2023-05-20T13:45:13.948Z,31.65
2023-05-20T13:47:40.724Z,63.05
2023-05-20T13:50:08.175Z,86.68
2023-05-20T13:52:34.855Z,22.55
2023-05-20T13:55:01.561Z,30.20
2023-05-20T13:57:28.074Z,6.85
2023-05-20T13:59:54.585Z,70.35
2023-05-20T14:02:21.306Z,14.70
2023-05-20T14:04:48.105Z,25.98
2023-05-20T14:07:16.181Z,45.70
2023-05-20T14:09:45.097Z,13.70
2023-05-20T14:12:16.155Z,45.10
2023-05-20T14:14:42.871Z,53.47
2023-05-20T14:17:09.921Z,17.80
2023-05-20T14:19:36.584Z,59.80
2023-05-20T14:22:03.442Z,28.55
2023-05-20T14:24:30.102Z,27.02
2023-05-20T14:26:56.614Z,114.53
2023-05-20T14:29:23.298Z,20.90
2023-05-20T14:31:49.911Z,12.20
2023-05-20T14:34:16.852Z,7.57
2023-05-20T14:36:43.926Z,68.45
2023-05-20T14:39:10.472Z,22.27
2023-05-20T14:41:37.182Z,9.20
2023-05-20T14:44:03.868Z,20.73
2023-05-20T14:46:30.864Z,54.17
2023-05-20T14:48:57.454Z,10.13
2023-05-20T14:51:27.144Z,55.55
2023-05-20T14:53:53.762Z,12.68
2023-05-20T14:56:20.742Z,11.37
2023-05-20T14:58:47.383Z,24.27
2023-05-20T15:01:13.992Z,117.32
2023-05-20T15:03:41.159Z,20.00
2023-05-20T15:06:07.843Z,45.05
2023-05-20T15:08:34.384Z,57.57
2023-05-20T15:11:01.194Z,105.32
2023-05-20T15:13:27.797Z,8.57
2023-05-20T15:15:54.408Z,42.08
2023-05-20T15:18:21.169Z,22.98
2023-05-20T15:20:48.115Z,96.30
2023-05-20T15:23:14.658Z,13.65
2023-05-20T15:25:41.395Z,38.08
2023-05-20T15:28:08.013Z,13.57
2023-05-20T15:30:34.829Z,82.22
2023-05-20T15:33:01.877Z,68.00
2023-05-20T15:35:28.655Z,9.23
2023-05-20T15:37:55.614Z,21.33
2023-05-20T15:40:24.656Z,15.68
2023-05-20T15:42:51.514Z,21.00
2023-05-20T15:45:18.435Z,16.90
2023-05-20T15:47:45.061Z,20.73
2023-05-20T15:52:56.852Z,21.20
2023-05-20T15:55:26.982Z,15.27
2023-05-20T15:57:54.012Z,5.50
2023-05-20T16:00:24.483Z,21.83
2023-05-20T16:02:51.752Z,20.55
2023-05-20T16:05:18.426Z,6.75
2023-05-20T16:07:46.825Z,5.97
2023-05-20T16:10:13.491Z,21.97
2023-05-20T16:12:40.240Z,6.35
2023-05-20T16:15:10.764Z,82.70
2023-05-20T16:17:38.085Z,17.80
2023-05-20T16:20:08.351Z,10.20
2023-05-20T16:22:36.108Z,94.53
2023-05-20T16:25:03.878Z,38.13
2023-05-20T16:27:33.032Z,31.55
2023-05-20T16:29:59.787Z,8.45
2023-05-20T16:32:27.073Z,8.60
2023-05-20T16:34:54.760Z,196.60
2023-05-20T16:37:27.028Z,31.02
2023-05-20T16:39:53.646Z,50.33
2023-05-20T16:42:21.305Z,18.15
2023-05-20T16:44:50.718Z,5.25
2023-05-20T16:47:17.619Z,14.73
2023-05-20T16:49:44.241Z,6.82
2023-05-20T16:52:11.032Z,34.00
2023-05-20T16:54:37.667Z,19.65
2023-05-20T16:57:04.766Z,22.83
2023-05-20T16:59:34.953Z,8.53
2023-05-20T17:02:02.146Z,31.55
2023-05-20T17:04:28.729Z,11.15
2023-05-20T17:06:56.807Z,41.55
2023-05-20T17:09:23.532Z,21.35
2023-05-20T17:11:50.991Z,6.87
2023-05-20T17:14:17.865Z,6.53
2023-05-20T17:16:46.824Z,59.33
2023-05-20T17:19:13.551Z,85.95
2023-05-20T17:21:40.106Z,7.70
2023-05-20T17:24:07.094Z,43.30
2023-05-20T17:26:33.976Z,26.90
2023-05-20T17:29:00.740Z,42.28
2023-05-20T17:31:27.314Z,12.25
2023-05-20T17:33:53.949Z,20.75
2023-05-20T17:36:22.904Z,6.97
2023-05-20T17:38:50.515Z,43.92
2023-05-20T17:41:21.897Z,38.70
2023-05-20T17:43:48.598Z,7.15
2023-05-20T17:46:19.013Z,14.63
2023-05-20T17:48:45.720Z,8.47
2023-05-20T17:51:12.362Z,7.78
2023-05-20T17:53:38.880Z,16.50
2023-05-20T17:56:05.894Z,17.73
2023-05-20T17:58:33.658Z,36.35
2023-05-20T18:01:00.435Z,63.57
2023-05-20T18:03:27.832Z,17.27
2023-05-20T18:05:56.151Z,19.75
2023-05-20T18:08:25.183Z,23.42
2023-05-20T18:10:52.574Z,38.55
2023-05-20T18:13:19.156Z,47.33
2023-05-20T18:15:45.731Z,10.75
2023-05-20T18:18:12.380Z,51.75
2023-05-20T18:20:38.897Z,9.90
2023-05-20T18:23:05.462Z,10.68
2023-05-20T18:25:32.421Z,48.77
2023-05-20T18:27:58.967Z,59.95
2023-05-20T18:30:25.518Z,23.33
2023-05-20T18:32:53.269Z,32.80
2023-05-20T18:35:20.095Z,26.10
2023-05-20T18:37:46.860Z,16.97
2023-05-20T18:40:13.904Z,19.10
2023-05-20T18:42:40.505Z,35.72
2023-05-20T18:45:07.665Z,14.45
2023-05-20T18:47:34.394Z,21.13
2023-05-20T18:50:01.174Z,29.97
2023-05-20T18:52:27.754Z,33.05
2023-05-20T18:54:54.335Z,57.65
2023-05-20T18:57:22.483Z,63.42
2023-05-20T18:59:49.121Z,67.40
2023-05-20T19:02:17.287Z,53.03
2023-05-20T19:04:44.072Z,20.58
2023-05-20T19:07:11.737Z,30.02
2023-05-20T19:09:38.335Z,28.23
2023-05-20T19:12:05.907Z,118.03
2023-05-20T19:14:32.451Z,138.83
2023-05-20T19:17:00.949Z,38.47
2023-05-20T19:19:27.824Z,72.07
2023-05-20T19:21:54.634Z,24.13
2023-05-20T19:24:21.414Z,60.83
2023-05-20T19:26:48.096Z,109.63
2023-05-20T19:29:15.357Z,93.25
2023-05-20T19:31:43.222Z,52.72
2023-05-20T19:34:10.224Z,80.78
2023-05-20T19:36:38.377Z,72.68
2023-05-20T19:39:05.376Z,36.67
2023-05-20T19:41:32.126Z,60.78
2023-05-20T19:43:58.674Z,111.05
2023-05-20T19:46:25.306Z,72.18
2023-05-20T19:48:51.996Z,41.95
2023-05-20T19:51:18.586Z,57.83
2023-05-20T19:53:45.202Z,114.43
2023-05-20T19:56:12.904Z,95.70
2023-05-20T19:58:39.506Z,125.03
2023-05-20T20:01:06.676Z,66.30
2023-05-20T20:03:34.080Z,85.47
2023-05-20T20:06:00.796Z,101.70
2023-05-20T20:08:27.373Z,73.40
2023-05-20T20:10:53.900Z,79.40
2023-05-20T20:13:20.496Z,87.28
2023-05-20T20:15:47.085Z,79.60
2023-05-20T20:18:14.200Z,65.32
2023-05-20T20:20:40.727Z,114.20
2023-05-20T20:23:08.426Z,120.35
2023-05-20T20:25:38.808Z,153.02
2023-05-20T20:28:09.149Z,150.70
2023-05-20T20:30:36.399Z,132.68
2023-05-20T20:33:06.426Z,150.90
2023-05-20T20:35:34.148Z,123.63
2023-05-20T20:38:01.467Z,101.53
2023-05-20T20:40:28.418Z,111.83
2023-05-20T20:42:58.375Z,144.43
2023-05-20T20:45:24.954Z,89.57
2023-05-20T20:47:58.010Z,134.48
2023-05-20T20:50:24.845Z,97.60
2023-05-20T20:52:51.361Z,126.93
2023-05-20T20:55:18.052Z,106.88
2023-05-20T20:57:44.851Z,97.85
2023-05-20T21:00:23.204Z,113.20
2023-05-20T21:02:50.222Z,105.35
2023-05-20T21:05:17.491Z,111.80
2023-05-20T21:07:46.505Z,95.32
2023-05-20T21:10:13.260Z,100.97
2023-05-20T21:12:39.865Z,123.78
2023-05-20T21:15:07.154Z,115.30
2023-05-20T21:17:33.727Z,108.33
2023-05-20T21:20:00.414Z,127.22
2023-05-20T21:22:26.963Z,129.50
2023-05-20T21:24:53.506Z,115.97
2023-05-20T21:27:20.025Z,107.15
2023-05-20T21:29:46.631Z,124.30
2023-05-20T21:32:13.148Z,117.07
2023-05-20T21:34:39.673Z,108.43
2023-05-20T21:37:06.323Z,97.82
2023-05-20T21:39:32.829Z,118.50
2023-05-20T21:41:59.372Z,95.90
2023-05-20T21:44:25.899Z,115.57
2023-05-20T21:46:52.540Z,102.80
2023-05-20T21:49:19.110Z,93.50
2023-05-20T21:51:45.614Z,74.05
2023-05-20T21:54:12.203Z,102.30
2023-05-20T21:56:39.132Z,73.35
2023-05-20T21:59:05.694Z,80.90
2023-05-20T22:01:32.599Z,88.45
2023-05-20T22:03:59.442Z,109.85
2023-05-20T22:06:26.431Z,76.30
2023-05-20T22:08:54.996Z,113.47
2023-05-20T22:11:21.618Z,99.85
2023-05-20T22:13:48.195Z,93.53
2023-05-20T22:16:14.811Z,74.43
2023-05-20T22:18:42.644Z,68.53
2023-05-20T22:21:09.419Z,66.20
2023-05-20T22:23:36.110Z,89.18
2023-05-20T22:26:02.712Z,77.45
2023-05-20T22:28:30.414Z,60.15
2023-05-20T22:30:56.959Z,34.30
2023-05-20T22:33:24.443Z,55.38
2023-05-20T22:35:51.489Z,54.40
2023-05-20T22:38:18.043Z,46.58
2023-05-20T22:40:44.570Z,50.50
2023-05-20T22:43:13.067Z,50.83
2023-05-20T22:45:40.140Z,57.75
2023-05-20T22:48:06.920Z,32.90
2023-05-20T22:50:35.302Z,47.17
2023-05-20T22:53:04.664Z,49.90
2023-05-20T22:55:31.206Z,86.00
2023-05-20T22:57:57.942Z,84.85
2023-05-20T23:00:24.806Z,46.03
2023-05-20T23:02:52.323Z,54.55
2023-05-20T23:05:19.222Z,43.38
2023-05-20T23:07:45.876Z,50.93
2023-05-20T23:10:12.405Z,50.92
2023-05-20T23:12:39.046Z,39.85
2023-05-20T23:15:06.136Z,43.22
2023-05-20T23:17:32.683Z,59.15
2023-05-20T23:19:59.225Z,31.43
2023-05-20T23:22:25.972Z,29.98
2023-05-20T23:24:52.514Z,22.27
2023-05-20T23:27:19.036Z,19.45
2023-05-20T23:29:45.971Z,43.25
2023-05-20T23:32:12.481Z,10.90
2023-05-20T23:34:38.957Z,13.25
2023-05-20T23:37:05.452Z,24.83
2023-05-20T23:39:32.062Z,20.67
2023-05-20T23:41:58.579Z,26.05
2023-05-20T23:44:25.110Z,32.20
2023-05-20T23:46:51.675Z,57.35
2023-05-20T23:49:18.671Z,19.15
2023-05-20T23:51:45.182Z,74.25
2023-05-20T23:54:16.181Z,20.20
2023-05-20T23:56:42.770Z,5.50
2023-05-20T23:59:09.361Z,25.27
